sensor_id;sensor_type;location;lat;lon;timestamp;P1;durP1;ratioP1;P2;durP2;ratioP2
63203;SDS011;49297;43.210;27.914;2023-05-10T00:00:54;4.63;;;4.18;;
63203;SDS011;49297;43.210;27.914;2023-05-10T00:03:21;5.75;;;5.15;;
63203;SDS011;49297;43.210;27.914;2023-05-10T00:05:48;8.50;;;6.70;;
63203;SDS011;49297;43.210;27.914;2023-05-10T00:08:14;7.70;;;6.85;;
63203;SDS011;49297;43.210;27.914;2023-05-10T00:10:40;8.67;;;7.17;;
63203;SDS011;49297;43.210;27.914;2023-05-10T00:13:07;7.75;;;6.63;;
63203;SDS011;49297;43.210;27.914;2023-05-10T00:15:32;9.40;;;7.55;;
63203;SDS011;49297;43.210;27.914;2023-05-10T00:18:02;12.32;;;6.75;;
63203;SDS011;49297;43.210;27.914;2023-05-10T00:20:28;13.18;;;8.38;;
63203;SDS011;49297;43.210;27.914;2023-05-10T00:22:55;8.50;;;7.70;;
63203;SDS011;49297;43.210;27.914;2023-05-10T00:25:23;11.27;;;9.82;;
63203;SDS011;49297;43.210;27.914;2023-05-10T00:27:50;10.82;;;9.48;;
63203;SDS011;49297;43.210;27.914;2023-05-10T00:30:17;12.57;;;9.25;;
63203;SDS011;49297;43.210;27.914;2023-05-10T00:32:44;10.02;;;8.98;;
63203;SDS011;49297;43.210;27.914;2023-05-10T00:35:10;10.55;;;9.50;;
63203;SDS011;49297;43.210;27.914;2023-05-10T00:37:37;11.23;;;10.13;;
63203;SDS011;49297;43.210;27.914;2023-05-10T00:40:03;13.63;;;12.43;;
63203;SDS011;49297;43.210;27.914;2023-05-10T00:42:30;14.38;;;13.10;;
63203;SDS011;49297;43.210;27.914;2023-05-10T00:44:56;12.88;;;11.32;;
63203;SDS011;49297;43.210;27.914;2023-05-10T00:47:23;13.00;;;10.95;;
63203;SDS011;49297;43.210;27.914;2023-05-10T00:49:49;12.75;;;10.75;;
63203;SDS011;49297;43.210;27.914;2023-05-10T00:52:17;10.73;;;9.63;;
63203;SDS011;49297;43.210;27.914;2023-05-10T00:54:50;11.37;;;9.87;;
63203;SDS011;49297;43.210;27.914;2023-05-10T00:57:17;12.47;;;8.73;;
63203;SDS011;49297;43.210;27.914;2023-05-10T00:59:44;12.57;;;9.68;;
63203;SDS011;49297;43.210;27.914;2023-05-10T01:02:12;10.95;;;9.15;;
63203;SDS011;49297;43.210;27.914;2023-05-10T01:04:40;10.73;;;9.10;;
63203;SDS011;49297;43.210;27.914;2023-05-10T01:07:06;9.27;;;7.88;;
63203;SDS011;49297;43.210;27.914;2023-05-10T01:09:32;8.63;;;7.72;;
63203;SDS011;49297;43.210;27.914;2023-05-10T01:11:59;11.75;;;7.32;;
63203;SDS011;49297;43.210;27.914;2023-05-10T01:14:26;8.10;;;7.20;;
63203;SDS011;49297;43.210;27.914;2023-05-10T01:16:55;9.13;;;6.45;;
63203;SDS011;49297;43.210;27.914;2023-05-10T01:19:25;7.25;;;6.50;;
63203;SDS011;49297;43.210;27.914;2023-05-10T01:28:17;7.53;;;6.47;;
63203;SDS011;49297;43.210;27.914;2023-05-10T01:36:30;10.85;;;8.30;;
63203;SDS011;49297;43.210;27.914;2023-05-10T01:39:05;12.85;;;8.23;;
63203;SDS011;49297;43.210;27.914;2023-05-10T01:42:08;9.77;;;8.77;;
63203;SDS011;49297;43.210;27.914;2023-05-10T01:47:38;9.38;;;7.45;;
63203;SDS011;49297;43.210;27.914;2023-05-10T01:50:12;9.48;;;8.25;;
63203;SDS011;49297;43.210;27.914;2023-05-10T01:52:42;9.52;;;8.55;;
63203;SDS011;49297;43.210;27.914;2023-05-10T01:55:14;9.15;;;8.00;;
63203;SDS011;49297;43.210;27.914;2023-05-10T01:57:42;10.02;;;9.02;;
63203;SDS011;49297;43.210;27.914;2023-05-10T02:00:12;10.43;;;8.27;;
63203;SDS011;49297;43.210;27.914;2023-05-10T02:02:40;9.15;;;8.32;;
63203;SDS011;49297;43.210;27.914;2023-05-10T02:05:10;10.43;;;9.33;;
63203;SDS011;49297;43.210;27.914;2023-05-10T02:07:38;10.23;;;9.13;;
63203;SDS011;49297;43.210;27.914;2023-05-10T02:10:18;10.77;;;9.57;;
63203;SDS011;49297;43.210;27.914;2023-05-10T02:12:47;10.60;;;9.60;;
63203;SDS011;49297;43.210;27.914;2023-05-10T02:15:17;10.90;;;9.90;;
63203;SDS011;49297;43.210;27.914;2023-05-10T02:17:48;10.07;;;9.18;;
63203;SDS011;49297;43.210;27.914;2023-05-10T02:20:16;10.35;;;9.35;;
63203;SDS011;49297;43.210;27.914;2023-05-10T02:22:44;10.57;;;9.50;;
63203;SDS011;49297;43.210;27.914;2023-05-10T02:25:12;10.80;;;9.63;;
63203;SDS011;49297;43.210;27.914;2023-05-10T02:27:42;10.52;;;9.63;;
63203;SDS011;49297;43.210;27.914;2023-05-10T02:30:10;11.93;;;10.60;;
63203;SDS011;49297;43.210;27.914;2023-05-10T02:32:38;11.25;;;10.20;;
63203;SDS011;49297;43.210;27.914;2023-05-10T02:35:05;10.80;;;9.60;;
63203;SDS011;49297;43.210;27.914;2023-05-10T02:37:34;10.55;;;9.55;;
63203;SDS011;49297;43.210;27.914;2023-05-10T02:40:02;9.57;;;8.65;;
63203;SDS011;49297;43.210;27.914;2023-05-10T02:42:31;13.75;;;10.35;;
63203;SDS011;49297;43.210;27.914;2023-05-10T02:45:01;11.35;;;10.18;;
63203;SDS011;49297;43.210;27.914;2023-05-10T02:47:29;10.40;;;9.27;;
63203;SDS011;49297;43.210;27.914;2023-05-10T02:49:56;10.18;;;9.27;;
63203;SDS011;49297;43.210;27.914;2023-05-10T02:52:23;10.37;;;9.27;;
63203;SDS011;49297;43.210;27.914;2023-05-10T02:54:54;10.93;;;9.82;;
63203;SDS011;49297;43.210;27.914;2023-05-10T02:57:34;11.05;;;9.65;;
63203;SDS011;49297;43.210;27.914;2023-05-10T03:00:04;10.45;;;9.45;;
63203;SDS011;49297;43.210;27.914;2023-05-10T03:02:30;10.38;;;9.40;;
63203;SDS011;49297;43.210;27.914;2023-05-10T03:04:56;11.02;;;10.10;;
63203;SDS011;49297;43.210;27.914;2023-05-10T03:07:22;11.77;;;9.38;;
63203;SDS011;49297;43.210;27.914;2023-05-10T03:09:48;12.43;;;9.97;;
63203;SDS011;49297;43.210;27.914;2023-05-10T03:20:47;9.82;;;8.65;;
63203;SDS011;49297;43.210;27.914;2023-05-10T03:25:44;10.20;;;9.25;;
63203;SDS011;49297;43.210;27.914;2023-05-10T03:28:18;12.10;;;9.90;;
63203;SDS011;49297;43.210;27.914;2023-05-10T03:30:45;14.25;;;12.75;;
63203;SDS011;49297;43.210;27.914;2023-05-10T03:33:14;14.52;;;12.35;;
63203;SDS011;49297;43.210;27.914;2023-05-10T03:35:40;15.88;;;13.18;;
63203;SDS011;49297;43.210;27.914;2023-05-10T03:38:06;12.90;;;11.80;;
63203;SDS011;49297;43.210;27.914;2023-05-10T03:40:33;14.18;;;12.82;;
63203;SDS011;49297;43.210;27.914;2023-05-10T03:43:01;11.50;;;10.43;;
63203;SDS011;49297;43.210;27.914;2023-05-10T03:45:27;13.75;;;12.40;;
63203;SDS011;49297;43.210;27.914;2023-05-10T03:47:54;14.07;;;12.73;;
63203;SDS011;49297;43.210;27.914;2023-05-10T03:50:20;12.07;;;10.98;;
63203;SDS011;49297;43.210;27.914;2023-05-10T03:52:46;14.63;;;10.70;;
63203;SDS011;49297;43.210;27.914;2023-05-10T03:55:12;10.43;;;9.50;;
63203;SDS011;49297;43.210;27.914;2023-05-10T03:57:38;13.02;;;10.02;;
63203;SDS011;49297;43.210;27.914;2023-05-10T04:00:10;10.98;;;8.65;;
63203;SDS011;49297;43.210;27.914;2023-05-10T04:02:37;10.52;;;8.88;;
63203;SDS011;49297;43.210;27.914;2023-05-10T04:05:03;10.43;;;9.05;;
63203;SDS011;49297;43.210;27.914;2023-05-10T04:07:35;13.65;;;9.32;;
63203;SDS011;49297;43.210;27.914;2023-05-10T04:10:01;9.27;;;8.17;;
63203;SDS011;49297;43.210;27.914;2023-05-10T04:12:27;9.85;;;8.23;;
63203;SDS011;49297;43.210;27.914;2023-05-10T04:14:53;16.08;;;8.30;;
63203;SDS011;49297;43.210;27.914;2023-05-10T04:17:19;12.88;;;8.35;;
63203;SDS011;49297;43.210;27.914;2023-05-10T04:19:46;11.90;;;8.57;;
63203;SDS011;49297;43.210;27.914;2023-05-10T04:22:12;9.68;;;8.35;;
63203;SDS011;49297;43.210;27.914;2023-05-10T04:24:39;10.77;;;7.83;;
63203;SDS011;49297;43.210;27.914;2023-05-10T04:27:06;10.67;;;7.30;;
63203;SDS011;49297;43.210;27.914;2023-05-10T04:29:31;9.90;;;7.43;;
63203;SDS011;49297;43.210;27.914;2023-05-10T04:31:59;9.00;;;7.25;;
63203;SDS011;49297;43.210;27.914;2023-05-10T04:34:27;9.43;;;7.80;;
63203;SDS011;49297;43.210;27.914;2023-05-10T04:36:53;8.97;;;7.17;;
63203;SDS011;49297;43.210;27.914;2023-05-10T04:41:47;7.68;;;6.82;;
63203;SDS011;49297;43.210;27.914;2023-05-10T04:44:13;9.23;;;7.07;;
63203;SDS011;49297;43.210;27.914;2023-05-10T04:46:40;10.33;;;5.70;;
63203;SDS011;49297;43.210;27.914;2023-05-10T04:49:06;8.70;;;6.35;;
63203;SDS011;49297;43.210;27.914;2023-05-10T04:51:32;8.38;;;5.38;;
63203;SDS011;49297;43.210;27.914;2023-05-10T04:53:57;9.50;;;6.07;;
63203;SDS011;49297;43.210;27.914;2023-05-10T04:56:23;6.07;;;5.47;;
63203;SDS011;49297;43.210;27.914;2023-05-10T04:58:49;6.65;;;5.28;;
63203;SDS011;49297;43.210;27.914;2023-05-10T05:01:15;5.70;;;4.22;;
63203;SDS011;49297;43.210;27.914;2023-05-10T05:03:53;6.20;;;4.57;;
63203;SDS011;49297;43.210;27.914;2023-05-10T05:06:19;8.38;;;4.38;;
63203;SDS011;49297;43.210;27.914;2023-05-10T05:08:51;5.22;;;4.30;;
63203;SDS011;49297;43.210;27.914;2023-05-10T05:11:19;4.90;;;4.28;;
63203;SDS011;49297;43.210;27.914;2023-05-10T05:13:46;6.53;;;4.90;;
63203;SDS011;49297;43.210;27.914;2023-05-10T05:16:19;4.00;;;3.43;;
63203;SDS011;49297;43.210;27.914;2023-05-10T05:18:47;4.25;;;3.70;;
63203;SDS011;49297;43.210;27.914;2023-05-10T05:21:14;5.82;;;3.85;;
63203;SDS011;49297;43.210;27.914;2023-05-10T05:23:44;7.18;;;4.03;;
63203;SDS011;49297;43.210;27.914;2023-05-10T05:26:10;5.05;;;4.07;;
63203;SDS011;49297;43.210;27.914;2023-05-10T05:28:37;4.18;;;3.75;;
63203;SDS011;49297;43.210;27.914;2023-05-10T05:31:04;6.57;;;3.85;;
63203;SDS011;49297;43.210;27.914;2023-05-10T05:33:30;4.95;;;4.05;;
63203;SDS011;49297;43.210;27.914;2023-05-10T05:35:59;4.55;;;3.95;;
63203;SDS011;49297;43.210;27.914;2023-05-10T05:38:26;7.68;;;4.22;;
63203;SDS011;49297;43.210;27.914;2023-05-10T05:40:52;4.57;;;4.07;;
63203;SDS011;49297;43.210;27.914;2023-05-10T05:43:18;4.53;;;3.93;;
63203;SDS011;49297;43.210;27.914;2023-05-10T05:45:44;5.57;;;4.10;;
63203;SDS011;49297;43.210;27.914;2023-05-10T05:48:10;6.53;;;3.75;;
63203;SDS011;49297;43.210;27.914;2023-05-10T05:50:36;4.97;;;3.58;;
63203;SDS011;49297;43.210;27.914;2023-05-10T05:53:02;5.00;;;3.90;;
63203;SDS011;49297;43.210;27.914;2023-05-10T05:55:28;5.07;;;3.30;;
63203;SDS011;49297;43.210;27.914;2023-05-10T05:57:56;5.72;;;3.95;;
63203;SDS011;49297;43.210;27.914;2023-05-10T06:00:21;4.93;;;3.65;;
63203;SDS011;49297;43.210;27.914;2023-05-10T06:02:49;4.63;;;3.97;;
63203;SDS011;49297;43.210;27.914;2023-05-10T06:05:15;4.18;;;3.47;;
63203;SDS011;49297;43.210;27.914;2023-05-10T06:07:41;3.88;;;3.58;;
63203;SDS011;49297;43.210;27.914;2023-05-10T06:10:10;8.50;;;3.57;;
63203;SDS011;49297;43.210;27.914;2023-05-10T06:12:36;4.90;;;3.80;;
63203;SDS011;49297;43.210;27.914;2023-05-10T06:15:02;4.15;;;3.55;;
63203;SDS011;49297;43.210;27.914;2023-05-10T06:17:29;4.45;;;4.05;;
63203;SDS011;49297;43.210;27.914;2023-05-10T06:19:56;5.43;;;3.78;;
63203;SDS011;49297;43.210;27.914;2023-05-10T06:22:22;7.85;;;4.13;;
63203;SDS011;49297;43.210;27.914;2023-05-10T06:24:48;5.03;;;4.07;;
63203;SDS011;49297;43.210;27.914;2023-05-10T06:27:24;7.03;;;3.80;;
63203;SDS011;49297;43.210;27.914;2023-05-10T06:29:50;4.05;;;3.75;;
63203;SDS011;49297;43.210;27.914;2023-05-10T06:32:16;4.72;;;3.80;;
63203;SDS011;49297;43.210;27.914;2023-05-10T06:34:42;5.53;;;4.13;;
63203;SDS011;49297;43.210;27.914;2023-05-10T06:37:11;6.90;;;4.40;;
63203;SDS011;49297;43.210;27.914;2023-05-10T06:39:39;4.45;;;4.05;;
63203;SDS011;49297;43.210;27.914;2023-05-10T06:42:05;5.57;;;4.07;;
63203;SDS011;49297;43.210;27.914;2023-05-10T06:44:31;5.22;;;3.75;;
63203;SDS011;49297;43.210;27.914;2023-05-10T06:47:03;4.82;;;4.10;;
63203;SDS011;49297;43.210;27.914;2023-05-10T06:49:29;4.55;;;3.80;;
63203;SDS011;49297;43.210;27.914;2023-05-10T06:51:55;3.72;;;3.40;;
63203;SDS011;49297;43.210;27.914;2023-05-10T06:54:22;6.72;;;3.55;;
63203;SDS011;49297;43.210;27.914;2023-05-10T06:56:48;5.95;;;3.70;;
63203;SDS011;49297;43.210;27.914;2023-05-10T06:59:14;4.18;;;3.78;;
63203;SDS011;49297;43.210;27.914;2023-05-10T07:01:41;4.30;;;3.90;;
63203;SDS011;49297;43.210;27.914;2023-05-10T07:04:08;5.10;;;4.03;;
63203;SDS011;49297;43.210;27.914;2023-05-10T07:06:36;6.93;;;4.13;;
63203;SDS011;49297;43.210;27.914;2023-05-10T07:09:03;4.70;;;3.67;;
63203;SDS011;49297;43.210;27.914;2023-05-10T07:11:28;4.30;;;3.40;;
63203;SDS011;49297;43.210;27.914;2023-05-10T07:13:54;4.28;;;3.85;;
63203;SDS011;49297;43.210;27.914;2023-05-10T07:16:20;5.38;;;4.25;;
63203;SDS011;49297;43.210;27.914;2023-05-10T07:18:47;5.43;;;4.15;;
63203;SDS011;49297;43.210;27.914;2023-05-10T07:21:14;4.63;;;3.72;;
63203;SDS011;49297;43.210;27.914;2023-05-10T07:26:09;5.93;;;4.57;;
63203;SDS011;49297;43.210;27.914;2023-05-10T07:28:35;6.03;;;3.17;;
63203;SDS011;49297;43.210;27.914;2023-05-10T07:31:03;6.10;;;5.40;;
63203;SDS011;49297;43.210;27.914;2023-05-10T07:33:28;6.57;;;5.18;;
63203;SDS011;49297;43.210;27.914;2023-05-10T07:35:54;4.20;;;3.80;;
63203;SDS011;49297;43.210;27.914;2023-05-10T07:38:20;7.40;;;4.50;;
63203;SDS011;49297;43.210;27.914;2023-05-10T07:40:47;5.82;;;4.53;;
63203;SDS011;49297;43.210;27.914;2023-05-10T07:43:19;7.80;;;5.33;;
63203;SDS011;49297;43.210;27.914;2023-05-10T07:45:45;8.43;;;3.40;;
63203;SDS011;49297;43.210;27.914;2023-05-10T07:48:11;5.35;;;4.28;;
63203;SDS011;49297;43.210;27.914;2023-05-10T07:50:43;7.13;;;4.00;;
63203;SDS011;49297;43.210;27.914;2023-05-10T07:53:08;6.83;;;4.70;;
63203;SDS011;49297;43.210;27.914;2023-05-10T07:55:34;4.77;;;3.77;;
63203;SDS011;49297;43.210;27.914;2023-05-10T07:58:00;8.37;;;5.17;;
63203;SDS011;49297;43.210;27.914;2023-05-10T08:00:27;5.43;;;3.55;;
63203;SDS011;49297;43.210;27.914;2023-05-10T08:02:53;6.25;;;3.15;;
63203;SDS011;49297;43.210;27.914;2023-05-10T08:05:19;4.10;;;2.67;;
63203;SDS011;49297;43.210;27.914;2023-05-10T08:07:46;4.10;;;3.13;;
63203;SDS011;49297;43.210;27.914;2023-05-10T08:10:12;4.63;;;3.50;;
63203;SDS011;49297;43.210;27.914;2023-05-10T08:12:38;5.00;;;3.55;;
63203;SDS011;49297;43.210;27.914;2023-05-10T08:15:04;5.85;;;2.92;;
63203;SDS011;49297;43.210;27.914;2023-05-10T08:17:30;3.97;;;2.72;;
63203;SDS011;49297;43.210;27.914;2023-05-10T08:19:56;5.47;;;3.65;;
63203;SDS011;49297;43.210;27.914;2023-05-10T08:22:28;4.50;;;3.47;;
63203;SDS011;49297;43.210;27.914;2023-05-10T08:24:55;4.50;;;3.38;;
63203;SDS011;49297;43.210;27.914;2023-05-10T08:27:22;7.60;;;4.00;;
63203;SDS011;49297;43.210;27.914;2023-05-10T08:29:48;3.17;;;2.88;;
63203;SDS011;49297;43.210;27.914;2023-05-10T08:32:14;3.38;;;3.08;;
63203;SDS011;49297;43.210;27.914;2023-05-10T08:34:41;4.88;;;3.35;;
63203;SDS011;49297;43.210;27.914;2023-05-10T08:37:06;4.33;;;2.73;;
63203;SDS011;49297;43.210;27.914;2023-05-10T08:39:36;2.87;;;2.47;;
63203;SDS011;49297;43.210;27.914;2023-05-10T08:42:04;5.88;;;3.60;;
63203;SDS011;49297;43.210;27.914;2023-05-10T08:44:32;4.07;;;3.30;;
63203;SDS011;49297;43.210;27.914;2023-05-10T08:47:02;3.85;;;3.22;;
63203;SDS011;49297;43.210;27.914;2023-05-10T08:49:31;5.55;;;2.88;;
63203;SDS011;49297;43.210;27.914;2023-05-10T08:51:57;5.57;;;2.90;;
63203;SDS011;49297;43.210;27.914;2023-05-10T08:54:29;4.60;;;3.33;;
63203;SDS011;49297;43.210;27.914;2023-05-10T08:56:57;6.63;;;3.58;;
63203;SDS011;49297;43.210;27.914;2023-05-10T08:59:24;5.07;;;3.28;;
63203;SDS011;49297;43.210;27.914;2023-05-10T09:01:50;3.72;;;2.85;;
63203;SDS011;49297;43.210;27.914;2023-05-10T09:04:19;5.90;;;3.55;;
63203;SDS011;49297;43.210;27.914;2023-05-10T09:06:47;3.92;;;3.35;;
63203;SDS011;49297;43.210;27.914;2023-05-10T09:09:13;3.60;;;3.30;;
63203;SDS011;49297;43.210;27.914;2023-05-10T09:11:43;6.70;;;4.10;;
63203;SDS011;49297;43.210;27.914;2023-05-10T09:14:11;4.75;;;3.47;;
63203;SDS011;49297;43.210;27.914;2023-05-10T09:16:39;4.40;;;3.38;;
63203;SDS011;49297;43.210;27.914;2023-05-10T09:19:14;4.70;;;3.60;;
63203;SDS011;49297;43.210;27.914;2023-05-10T09:21:40;3.60;;;2.90;;
63203;SDS011;49297;43.210;27.914;2023-05-10T09:24:07;5.53;;;3.55;;
63203;SDS011;49297;43.210;27.914;2023-05-10T09:34:34;5.10;;;3.50;;
63203;SDS011;49297;43.210;27.914;2023-05-10T09:37:05;5.30;;;3.30;;
63203;SDS011;49297;43.210;27.914;2023-05-10T09:42:04;4.72;;;3.17;;
63203;SDS011;49297;43.210;27.914;2023-05-10T09:44:33;4.47;;;3.30;;
63203;SDS011;49297;43.210;27.914;2023-05-10T09:46:59;5.30;;;3.28;;
63203;SDS011;49297;43.210;27.914;2023-05-10T09:49:29;4.30;;;3.13;;
63203;SDS011;49297;43.210;27.914;2023-05-10T09:52:02;3.88;;;2.80;;
63203;SDS011;49297;43.210;27.914;2023-05-10T09:54:32;3.53;;;3.15;;
63203;SDS011;49297;43.210;27.914;2023-05-10T09:57:00;4.43;;;3.10;;
63203;SDS011;49297;43.210;27.914;2023-05-10T09:59:27;4.40;;;3.30;;
63203;SDS011;49297;43.210;27.914;2023-05-10T10:01:57;4.55;;;2.95;;
63203;SDS011;49297;43.210;27.914;2023-05-10T10:04:25;5.18;;;3.08;;
63203;SDS011;49297;43.210;27.914;2023-05-10T10:07:02;6.38;;;3.33;;
63203;SDS011;49297;43.210;27.914;2023-05-10T10:09:30;3.40;;;2.90;;
63203;SDS011;49297;43.210;27.914;2023-05-10T10:11:57;5.25;;;3.70;;
63203;SDS011;49297;43.210;27.914;2023-05-10T10:14:23;4.00;;;3.20;;
63203;SDS011;49297;43.210;27.914;2023-05-10T10:19:22;7.63;;;3.78;;
63203;SDS011;49297;43.210;27.914;2023-05-10T10:21:53;5.80;;;2.90;;
63203;SDS011;49297;43.210;27.914;2023-05-10T10:24:19;5.43;;;3.37;;
63203;SDS011;49297;43.210;27.914;2023-05-10T10:26:46;3.57;;;3.07;;
63203;SDS011;49297;43.210;27.914;2023-05-10T10:29:25;4.00;;;3.40;;
63203;SDS011;49297;43.210;27.914;2023-05-10T10:34:51;5.82;;;3.13;;
63203;SDS011;49297;43.210;27.914;2023-05-10T10:37:19;8.02;;;3.20;;
63203;SDS011;49297;43.210;27.914;2023-05-10T10:39:47;9.20;;;3.47;;
63203;SDS011;49297;43.210;27.914;2023-05-10T10:42:15;7.03;;;3.90;;
63203;SDS011;49297;43.210;27.914;2023-05-10T10:45:12;5.18;;;3.03;;
63203;SDS011;49297;43.210;27.914;2023-05-10T10:47:39;4.50;;;2.90;;
63203;SDS011;49297;43.210;27.914;2023-05-10T10:50:06;3.95;;;2.97;;
63203;SDS011;49297;43.210;27.914;2023-05-10T10:52:34;4.10;;;3.03;;
63203;SDS011;49297;43.210;27.914;2023-05-10T10:57:45;3.88;;;2.65;;
63203;SDS011;49297;43.210;27.914;2023-05-10T11:00:18;4.85;;;2.75;;
63203;SDS011;49297;43.210;27.914;2023-05-10T11:02:53;7.85;;;3.00;;
63203;SDS011;49297;43.210;27.914;2023-05-10T11:05:40;4.45;;;2.30;;
63203;SDS011;49297;43.210;27.914;2023-05-10T11:08:14;3.85;;;3.00;;
63203;SDS011;49297;43.210;27.914;2023-05-10T11:10:50;3.35;;;3.03;;
63203;SDS011;49297;43.210;27.914;2023-05-10T11:13:42;5.80;;;2.95;;
63203;SDS011;49297;43.210;27.914;2023-05-10T11:16:14;3.70;;;2.80;;
63203;SDS011;49297;43.210;27.914;2023-05-10T11:21:48;4.07;;;2.55;;
63203;SDS011;49297;43.210;27.914;2023-05-10T11:24:36;3.15;;;2.58;;
63203;SDS011;49297;43.210;27.914;2023-05-10T11:27:02;3.50;;;2.40;;
63203;SDS011;49297;43.210;27.914;2023-05-10T11:29:30;4.63;;;2.20;;
63203;SDS011;49297;43.210;27.914;2023-05-10T11:31:58;2.47;;;2.25;;
63203;SDS011;49297;43.210;27.914;2023-05-10T11:34:28;4.18;;;2.70;;
63203;SDS011;49297;43.210;27.914;2023-05-10T11:36:56;3.00;;;2.60;;
63203;SDS011;49297;43.210;27.914;2023-05-10T11:39:27;2.95;;;2.40;;
63203;SDS011;49297;43.210;27.914;2023-05-10T11:41:58;3.05;;;2.13;;
63203;SDS011;49297;43.210;27.914;2023-05-10T11:44:31;6.03;;;2.13;;
63203;SDS011;49297;43.210;27.914;2023-05-10T11:47:01;3.87;;;2.27;;
63203;SDS011;49297;43.210;27.914;2023-05-10T11:49:27;3.15;;;2.28;;
63203;SDS011;49297;43.210;27.914;2023-05-10T11:51:53;3.80;;;2.47;;
63203;SDS011;49297;43.210;27.914;2023-05-10T11:54:29;3.78;;;2.35;;
63203;SDS011;49297;43.210;27.914;2023-05-10T11:56:56;3.00;;;2.30;;
63203;SDS011;49297;43.210;27.914;2023-05-10T11:59:22;2.35;;;2.15;;
63203;SDS011;49297;43.210;27.914;2023-05-10T12:01:48;2.92;;;2.15;;
63203;SDS011;49297;43.210;27.914;2023-05-10T12:04:14;3.97;;;2.30;;
63203;SDS011;49297;43.210;27.914;2023-05-10T12:06:40;4.00;;;2.47;;
63203;SDS011;49297;43.210;27.914;2023-05-10T12:09:06;2.83;;;2.45;;
63203;SDS011;49297;43.210;27.914;2023-05-10T12:11:36;4.82;;;2.42;;
63203;SDS011;49297;43.210;27.914;2023-05-10T12:14:04;4.28;;;2.47;;
63203;SDS011;49297;43.210;27.914;2023-05-10T12:16:31;3.40;;;2.25;;
63203;SDS011;49297;43.210;27.914;2023-05-10T12:18:58;3.83;;;2.05;;
63203;SDS011;49297;43.210;27.914;2023-05-10T12:21:27;4.00;;;2.53;;
63203;SDS011;49297;43.210;27.914;2023-05-10T12:24:00;3.80;;;2.22;;
63203;SDS011;49297;43.210;27.914;2023-05-10T12:26:28;2.67;;;2.47;;
63203;SDS011;49297;43.210;27.914;2023-05-10T12:29:01;2.30;;;2.13;;
63203;SDS011;49297;43.210;27.914;2023-05-10T12:34:25;3.15;;;2.75;;
63203;SDS011;49297;43.210;27.914;2023-05-10T12:36:55;6.88;;;3.10;;
63203;SDS011;49297;43.210;27.914;2023-05-10T12:39:21;3.60;;;2.30;;
63203;SDS011;49297;43.210;27.914;2023-05-10T12:41:50;4.20;;;2.40;;
63203;SDS011;49297;43.210;27.914;2023-05-10T12:44:17;4.25;;;2.65;;
63203;SDS011;49297;43.210;27.914;2023-05-10T12:46:43;4.18;;;2.22;;
63203;SDS011;49297;43.210;27.914;2023-05-10T12:49:09;3.42;;;2.65;;
63203;SDS011;49297;43.210;27.914;2023-05-10T12:51:36;6.50;;;2.73;;
63203;SDS011;49297;43.210;27.914;2023-05-10T12:54:02;3.63;;;2.28;;
63203;SDS011;49297;43.210;27.914;2023-05-10T12:56:29;3.92;;;2.25;;
63203;SDS011;49297;43.210;27.914;2023-05-10T12:58:57;4.07;;;2.20;;
63203;SDS011;49297;43.210;27.914;2023-05-10T13:01:24;2.67;;;2.10;;
63203;SDS011;49297;43.210;27.914;2023-05-10T13:03:50;3.67;;;2.70;;
63203;SDS011;49297;43.210;27.914;2023-05-10T13:06:23;3.08;;;2.00;;
63203;SDS011;49297;43.210;27.914;2023-05-10T13:08:55;3.75;;;2.70;;
63203;SDS011;49297;43.210;27.914;2023-05-10T13:11:22;7.00;;;2.83;;
63203;SDS011;49297;43.210;27.914;2023-05-10T13:13:51;5.18;;;2.75;;
63203;SDS011;49297;43.210;27.914;2023-05-10T13:16:17;5.03;;;2.78;;
63203;SDS011;49297;43.210;27.914;2023-05-10T13:18:43;4.82;;;2.75;;
63203;SDS011;49297;43.210;27.914;2023-05-10T13:21:10;6.17;;;2.70;;
63203;SDS011;49297;43.210;27.914;2023-05-10T13:23:38;7.18;;;3.00;;
63203;SDS011;49297;43.210;27.914;2023-05-10T13:26:04;3.55;;;2.15;;
63203;SDS011;49297;43.210;27.914;2023-05-10T13:30:59;8.13;;;2.53;;
63203;SDS011;49297;43.210;27.914;2023-05-10T13:33:25;3.80;;;2.60;;
63203;SDS011;49297;43.210;27.914;2023-05-10T13:35:51;9.75;;;2.85;;
63203;SDS011;49297;43.210;27.914;2023-05-10T13:38:17;5.15;;;2.35;;
63203;SDS011;49297;43.210;27.914;2023-05-10T13:40:44;2.90;;;2.17;;
63203;SDS011;49297;43.210;27.914;2023-05-10T13:43:11;5.88;;;2.55;;
63203;SDS011;49297;43.210;27.914;2023-05-10T13:45:40;4.68;;;2.60;;
63203;SDS011;49297;43.210;27.914;2023-05-10T13:48:06;5.00;;;3.65;;
63203;SDS011;49297;43.210;27.914;2023-05-10T13:50:32;5.70;;;3.45;;
63203;SDS011;49297;43.210;27.914;2023-05-10T13:52:58;4.00;;;2.37;;
63203;SDS011;49297;43.210;27.914;2023-05-10T13:55:31;3.70;;;2.80;;
63203;SDS011;49297;43.210;27.914;2023-05-10T13:58:06;4.75;;;2.75;;
63203;SDS011;49297;43.210;27.914;2023-05-10T14:00:31;7.20;;;2.50;;
63203;SDS011;49297;43.210;27.914;2023-05-10T14:02:57;8.20;;;2.53;;
63203;SDS011;49297;43.210;27.914;2023-05-10T14:05:23;3.70;;;3.00;;
63203;SDS011;49297;43.210;27.914;2023-05-10T14:07:50;4.07;;;2.53;;
63203;SDS011;49297;43.210;27.914;2023-05-10T14:10:17;4.60;;;2.78;;
63203;SDS011;49297;43.210;27.914;2023-05-10T14:12:43;3.85;;;2.22;;
63203;SDS011;49297;43.210;27.914;2023-05-10T14:15:09;3.58;;;2.55;;
63203;SDS011;49297;43.210;27.914;2023-05-10T14:17:37;4.63;;;2.43;;
63203;SDS011;49297;43.210;27.914;2023-05-10T14:20:03;7.13;;;3.23;;
63203;SDS011;49297;43.210;27.914;2023-05-10T14:22:30;3.95;;;2.55;;
63203;SDS011;49297;43.210;27.914;2023-05-10T14:24:56;2.50;;;2.20;;
63203;SDS011;49297;43.210;27.914;2023-05-10T14:27:23;5.47;;;3.20;;
63203;SDS011;49297;43.210;27.914;2023-05-10T14:29:50;4.68;;;2.10;;
63203;SDS011;49297;43.210;27.914;2023-05-10T14:32:16;4.50;;;2.70;;
63203;SDS011;49297;43.210;27.914;2023-05-10T14:34:43;3.13;;;2.07;;
63203;SDS011;49297;43.210;27.914;2023-05-10T14:37:13;3.47;;;2.23;;
63203;SDS011;49297;43.210;27.914;2023-05-10T14:39:51;4.90;;;3.00;;
63203;SDS011;49297;43.210;27.914;2023-05-10T14:42:36;3.55;;;2.63;;
63203;SDS011;49297;43.210;27.914;2023-05-10T14:45:02;9.07;;;3.08;;
63203;SDS011;49297;43.210;27.914;2023-05-10T14:47:29;5.03;;;2.70;;
63203;SDS011;49297;43.210;27.914;2023-05-10T14:49:55;6.30;;;3.38;;
63203;SDS011;49297;43.210;27.914;2023-05-10T14:52:22;6.07;;;3.03;;
63203;SDS011;49297;43.210;27.914;2023-05-10T14:54:48;2.83;;;2.50;;
63203;SDS011;49297;43.210;27.914;2023-05-10T14:57:15;6.15;;;3.22;;
63203;SDS011;49297;43.210;27.914;2023-05-10T14:59:41;4.03;;;2.85;;
63203;SDS011;49297;43.210;27.914;2023-05-10T15:02:07;4.65;;;2.92;;
63203;SDS011;49297;43.210;27.914;2023-05-10T15:04:33;4.78;;;2.53;;
63203;SDS011;49297;43.210;27.914;2023-05-10T15:06:59;6.60;;;2.72;;
63203;SDS011;49297;43.210;27.914;2023-05-10T15:09:25;3.43;;;2.47;;
63203;SDS011;49297;43.210;27.914;2023-05-10T15:11:54;5.07;;;3.05;;
63203;SDS011;49297;43.210;27.914;2023-05-10T15:14:20;4.93;;;3.05;;
63203;SDS011;49297;43.210;27.914;2023-05-10T15:16:46;6.22;;;3.28;;
63203;SDS011;49297;43.210;27.914;2023-05-10T15:19:13;5.00;;;3.22;;
63203;SDS011;49297;43.210;27.914;2023-05-10T15:21:59;4.20;;;2.53;;
63203;SDS011;49297;43.210;27.914;2023-05-10T15:24:26;5.47;;;2.88;;
63203;SDS011;49297;43.210;27.914;2023-05-10T15:26:56;3.45;;;2.65;;
63203;SDS011;49297;43.210;27.914;2023-05-10T15:29:25;3.67;;;2.73;;
63203;SDS011;49297;43.210;27.914;2023-05-10T15:31:51;6.13;;;3.00;;
63203;SDS011;49297;43.210;27.914;2023-05-10T15:34:17;4.55;;;3.25;;